createdAt,value
2023-01-12T00:00:14.412Z,5.915
2023-01-12T00:01:14.223Z,6.041
2023-01-12T00:02:13.870Z,6.041
2023-01-12T00:03:14.552Z,5.998
2023-01-12T00:04:14.200Z,5.987
2023-01-12T00:05:13.940Z,6.014
2023-01-12T00:06:14.493Z,5.915
2023-01-12T00:07:13.974Z,5.926
2023-01-12T00:08:14.440Z,6.062
2023-01-12T00:09:13.963Z,6.043
2023-01-12T00:10:14.431Z,6.065
2023-01-12T00:11:13.914Z,6.081
2023-01-12T00:12:14.370Z,6.067
2023-01-12T00:13:13.877Z,6.155
2023-01-12T00:14:14.395Z,6.105
2023-01-12T00:15:13.924Z,6.107
2023-01-12T00:16:14.522Z,6.228
2023-01-12T00:17:14.181Z,6.180
2023-01-12T00:18:13.660Z,6.131
2023-01-12T00:19:14.250Z,6.217
2023-01-12T00:20:13.847Z,6.113
2023-01-12T00:21:14.347Z,6.142
2023-01-12T00:22:13.892Z,6.350
2023-01-12T00:23:14.355Z,6.318
2023-01-12T00:24:14.076Z,6.201
2023-01-12T00:25:14.601Z,6.201
2023-01-12T00:26:14.270Z,6.220
2023-01-12T00:27:13.791Z,6.209
2023-01-12T00:28:14.280Z,6.260
2023-01-12T00:29:13.765Z,6.262
2023-01-12T00:30:14.390Z,6.268
2023-01-12T00:31:13.954Z,6.310
2023-01-12T00:32:13.659Z,6.286
2023-01-12T00:33:14.158Z,6.268
2023-01-12T00:34:13.729Z,6.206
2023-01-12T00:35:14.449Z,6.220
2023-01-12T00:36:13.987Z,6.201
2023-01-12T00:37:14.572Z,6.142
2023-01-12T00:38:13.748Z,6.126
2023-01-12T00:39:14.278Z,6.121
2023-01-12T00:40:18.690Z,6.198
2023-01-12T00:41:14.259Z,6.164
2023-01-12T00:42:13.804Z,6.169
2023-01-12T00:43:14.259Z,6.185
2023-01-12T00:44:13.894Z,6.169
2023-01-12T00:45:14.413Z,6.196
2023-01-12T00:46:14.041Z,6.230
2023-01-12T00:47:13.690Z,6.225
2023-01-12T00:48:14.411Z,6.265
2023-01-12T00:49:13.957Z,6.348
2023-01-12T00:50:14.544Z,6.401
2023-01-12T00:51:14.043Z,6.572
2023-01-12T00:52:21.610Z,6.489
2023-01-12T00:54:14.387Z,6.513
2023-01-12T00:55:13.931Z,6.564
2023-01-12T00:56:14.465Z,6.658
2023-01-12T00:57:13.953Z,6.863
2023-01-12T00:58:14.508Z,6.810
2023-01-12T00:59:14.124Z,6.762
2023-01-12T01:00:14.692Z,6.852
2023-01-12T01:01:14.367Z,6.893
2023-01-12T01:02:14.456Z,6.831
2023-01-12T01:03:14.287Z,6.826
2023-01-12T01:04:13.833Z,6.863
2023-01-12T01:05:14.500Z,6.820
2023-01-12T01:06:13.966Z,6.788
2023-01-12T01:07:14.446Z,6.738
2023-01-12T01:08:13.910Z,6.914
2023-01-12T01:09:14.402Z,6.820
2023-01-12T01:10:13.862Z,6.876
2023-01-12T01:11:14.415Z,6.876
2023-01-12T01:12:13.685Z,6.994
2023-01-12T01:13:14.256Z,6.927
2023-01-12T01:14:13.795Z,6.834
2023-01-12T01:15:14.458Z,7.013
2023-01-12T01:16:14.290Z,6.930
2023-01-12T01:17:13.847Z,6.927
2023-01-12T01:18:14.299Z,6.954
2023-01-12T01:19:13.843Z,6.943
2023-01-12T01:20:14.668Z,6.842
2023-01-12T01:21:14.220Z,6.887
2023-01-12T01:22:13.822Z,6.826
2023-01-12T01:23:14.394Z,6.863
2023-01-12T01:24:13.918Z,6.933
2023-01-12T01:25:14.606Z,6.847
2023-01-12T01:26:14.123Z,6.820
2023-01-12T01:27:13.819Z,6.887
2023-01-12T01:28:14.519Z,6.962
2023-01-12T01:29:14.083Z,6.901
2023-01-12T01:30:14.748Z,6.876
2023-01-12T01:31:14.467Z,6.876
2023-01-12T01:32:14.243Z,6.839
2023-01-12T01:33:13.759Z,6.852
2023-01-12T01:34:14.376Z,6.876
2023-01-12T01:35:14.011Z,6.863
2023-01-12T01:36:14.562Z,6.839
2023-01-12T01:37:13.851Z,6.858
2023-01-12T01:38:14.315Z,6.874
2023-01-12T01:39:13.936Z,6.810
2023-01-12T01:40:14.518Z,6.847
2023-01-12T01:41:14.115Z,6.802
2023-01-12T01:42:13.714Z,6.954
2023-01-12T01:43:14.230Z,6.917
2023-01-12T01:44:13.814Z,6.863
2023-01-12T01:45:14.401Z,6.949
2023-01-12T01:46:13.981Z,6.847
2023-01-12T01:47:14.013Z,6.876
2023-01-12T01:48:14.502Z,6.844
2023-01-12T01:49:14.051Z,6.847
2023-01-12T01:50:13.629Z,6.823
2023-01-12T01:51:14.164Z,6.802
2023-01-12T01:52:13.751Z,6.764
2023-01-12T01:53:14.376Z,6.762
2023-01-12T01:54:14.048Z,6.802
2023-01-12T01:55:14.622Z,6.735
2023-01-12T01:56:14.119Z,6.764
2023-01-12T01:57:13.683Z,6.740
2023-01-12T01:58:14.235Z,6.762
2023-01-12T01:59:13.820Z,6.788
2023-01-12T02:00:14.512Z,6.730
2023-01-12T02:01:14.128Z,6.786
2023-01-12T02:02:14.252Z,6.724
2023-01-12T02:03:14.104Z,6.724
2023-01-12T02:04:14.447Z,6.660
2023-01-12T02:05:14.049Z,6.644
2023-01-12T02:06:14.559Z,6.639
2023-01-12T02:07:14.138Z,6.604
2023-01-12T02:08:13.643Z,6.625
2023-01-12T02:09:14.212Z,6.708
2023-01-12T02:10:13.754Z,6.684
2023-01-12T02:11:14.262Z,6.679
2023-01-12T02:12:13.786Z,6.636
2023-01-12T02:13:14.328Z,6.650
2023-01-12T02:14:14.335Z,6.647
2023-01-12T02:15:14.047Z,6.591
2023-01-12T02:16:13.775Z,6.588
2023-01-12T02:17:14.558Z,6.628
2023-01-12T02:18:14.103Z,6.623
2023-01-12T02:19:13.631Z,6.660
2023-01-12T02:20:14.511Z,6.660
2023-01-12T02:21:14.131Z,6.647
2023-01-12T02:22:13.712Z,6.596
2023-01-12T02:23:14.232Z,6.617
2023-01-12T02:24:13.836Z,6.628
2023-01-12T02:25:14.443Z,6.623
2023-01-12T02:26:13.992Z,6.644
2023-01-12T02:27:14.523Z,6.615
2023-01-12T02:28:14.044Z,6.583
2023-01-12T02:29:14.516Z,6.596
2023-01-12T02:30:14.094Z,6.588
2023-01-12T02:31:13.718Z,6.615
2023-01-12T02:32:14.393Z,6.567
2023-01-12T02:33:14.043Z,6.569
2023-01-12T02:34:13.644Z,6.577
2023-01-12T02:35:14.235Z,6.585
2023-01-12T02:36:13.730Z,6.588
2023-01-12T02:37:14.427Z,6.521
2023-01-12T02:38:13.958Z,6.543
2023-01-12T02:39:14.510Z,6.495
2023-01-12T02:40:13.976Z,6.415
2023-01-12T02:41:14.478Z,6.449
2023-01-12T02:42:14.103Z,6.457
2023-01-12T02:43:14.603Z,6.457
2023-01-12T02:44:14.130Z,6.452
2023-01-12T02:45:13.667Z,6.500
2023-01-12T02:46:14.392Z,6.468
2023-01-12T02:47:14.102Z,6.433
2023-01-12T02:48:14.590Z,6.444
2023-01-12T02:49:14.082Z,6.457
2023-01-12T02:50:13.651Z,6.423
2023-01-12T02:51:14.254Z,6.396
2023-01-12T02:53:14.141Z,6.324
2023-01-12T02:54:13.742Z,6.310
2023-01-12T02:55:14.447Z,6.292
2023-01-12T02:56:13.974Z,6.257
2023-01-12T02:57:14.711Z,6.281
2023-01-12T02:58:14.460Z,6.254
2023-01-12T02:59:14.141Z,6.233
2023-01-12T03:00:13.676Z,6.196
2023-01-12T03:01:14.866Z,6.145
2023-01-12T03:02:13.829Z,6.131
2023-01-12T03:03:14.422Z,6.105
2023-01-12T03:04:14.127Z,6.105
2023-01-12T03:05:13.670Z,6.062
2023-01-12T03:06:14.237Z,6.030
2023-01-12T03:07:14.002Z,5.937
2023-01-12T03:08:14.699Z,5.969
2023-01-12T03:09:14.462Z,5.950
2023-01-12T03:10:14.043Z,5.883
2023-01-12T03:11:14.591Z,5.856
2023-01-12T03:12:14.206Z,5.835
2023-01-12T03:13:13.791Z,5.779
2023-01-12T03:14:14.286Z,5.771
2023-01-12T03:15:13.828Z,5.774
2023-01-12T03:16:14.473Z,5.718
2023-01-12T03:17:14.146Z,5.704
2023-01-12T03:18:13.629Z,5.661
2023-01-12T03:19:14.422Z,5.635
2023-01-12T03:20:14.095Z,5.587
2023-01-12T03:21:13.807Z,5.552
2023-01-12T03:22:14.399Z,5.624
2023-01-12T03:23:14.571Z,5.635
2023-01-12T03:24:14.336Z,5.592
2023-01-12T03:25:14.076Z,5.597
2023-01-12T03:26:14.597Z,5.635
2023-01-12T03:27:14.127Z,5.600
2023-01-12T03:28:13.835Z,5.525
2023-01-12T03:29:14.416Z,5.453
2023-01-12T03:30:14.014Z,5.515
2023-01-12T03:31:13.641Z,5.515
2023-01-12T03:32:14.567Z,5.541
2023-01-12T03:33:14.135Z,5.491
2023-01-12T03:34:13.720Z,5.424
2023-01-12T03:35:14.394Z,5.405
2023-01-12T03:36:13.949Z,5.402
2023-01-12T03:37:14.447Z,5.394
2023-01-12T03:38:13.958Z,5.410
2023-01-12T03:39:14.493Z,5.480
2023-01-12T03:40:14.123Z,5.485
2023-01-12T03:41:13.674Z,5.456
2023-01-12T03:42:14.178Z,5.432
2023-01-12T03:43:13.906Z,5.357
2023-01-12T03:44:13.703Z,5.378
2023-01-12T03:45:14.302Z,5.309
2023-01-12T03:46:13.909Z,5.314
2023-01-12T03:47:14.459Z,5.408
2023-01-12T03:48:14.107Z,5.408
2023-01-12T03:49:13.675Z,5.304
2023-01-12T03:50:14.331Z,5.237
2023-01-12T03:51:13.895Z,5.285
2023-01-12T03:52:14.484Z,5.354
2023-01-12T03:53:14.179Z,5.293
2023-01-12T03:54:13.735Z,5.237
2023-01-12T03:55:14.775Z,5.181
2023-01-12T03:56:14.401Z,5.205
2023-01-12T03:57:13.924Z,5.170
2023-01-12T03:58:14.536Z,5.170
2023-01-12T03:59:14.107Z,5.159
2023-01-12T04:00:13.733Z,5.170
2023-01-12T04:01:14.643Z,5.162
2023-01-12T04:02:13.937Z,5.143
2023-01-12T04:03:14.651Z,5.165
2023-01-12T04:04:13.643Z,5.090
2023-01-12T04:05:14.304Z,5.074
2023-01-12T04:06:13.919Z,5.090
2023-01-12T04:07:14.447Z,5.071
2023-01-12T04:08:14.050Z,5.018
2023-01-12T04:09:13.699Z,5.021
2023-01-12T04:10:14.386Z,5.013
2023-01-12T04:11:13.908Z,5.018
2023-01-12T04:12:14.653Z,4.981
2023-01-12T04:13:14.362Z,4.989
2023-01-12T04:14:13.884Z,4.949
2023-01-12T04:15:14.467Z,4.957
2023-01-12T04:16:14.026Z,4.965
2023-01-12T04:17:13.845Z,4.898
2023-01-12T04:18:14.432Z,4.940
2023-01-12T04:19:13.988Z,4.951
2023-01-12T04:20:14.638Z,4.983
2023-01-12T04:21:14.067Z,5.045
2023-01-12T04:22:14.583Z,5.101
2023-01-12T04:23:14.131Z,5.090
2023-01-12T04:24:13.671Z,5.069
2023-01-12T04:25:14.501Z,5.074
2023-01-12T04:26:13.974Z,5.095
2023-01-12T04:27:14.647Z,5.157
2023-01-12T04:28:14.211Z,5.119
2023-01-12T04:29:13.770Z,5.165
2023-01-12T04:30:14.475Z,5.205
2023-01-12T04:31:14.196Z,5.157
2023-01-12T04:32:14.039Z,5.200
2023-01-12T04:33:14.525Z,5.175
2023-01-12T04:34:14.081Z,5.167
2023-01-12T04:35:14.586Z,5.154
2023-01-12T04:36:14.226Z,5.178
2023-01-12T04:37:13.688Z,5.186
2023-01-12T04:38:14.218Z,5.229
2023-01-12T04:39:13.705Z,5.229
2023-01-12T04:40:14.250Z,5.245
2023-01-12T04:41:13.818Z,5.274
2023-01-12T04:42:14.347Z,5.256
2023-01-12T04:43:13.875Z,5.266
2023-01-12T04:44:14.460Z,5.309
2023-01-12T04:45:14.091Z,5.341
2023-01-12T04:46:13.823Z,5.357
2023-01-12T04:47:14.439Z,5.424
2023-01-12T04:48:14.021Z,5.456
2023-01-12T04:49:14.585Z,5.432
2023-01-12T04:50:14.327Z,5.376
2023-01-12T04:51:13.900Z,5.397
2023-01-12T04:52:14.416Z,5.435
2023-01-12T04:53:14.110Z,5.384
2023-01-12T04:54:14.014Z,5.435
2023-01-12T04:55:14.785Z,5.421
2023-01-12T04:56:14.299Z,5.435
2023-01-12T04:57:13.880Z,5.421
2023-01-12T04:58:14.477Z,5.448
2023-01-12T04:59:13.985Z,5.421
2023-01-12T05:00:14.670Z,5.432
2023-01-12T05:01:14.425Z,5.418
2023-01-12T05:02:13.969Z,5.437
2023-01-12T05:03:14.450Z,5.410
2023-01-12T05:04:14.022Z,5.421
2023-01-12T05:05:13.770Z,5.432
2023-01-12T05:06:14.463Z,5.448
2023-01-12T05:07:13.990Z,5.467
2023-01-12T05:08:14.576Z,5.451
2023-01-12T05:09:14.189Z,5.469
2023-01-12T05:10:14.234Z,5.499
2023-01-12T05:11:13.721Z,5.531
2023-01-12T05:12:14.259Z,5.525
2023-01-12T05:13:13.790Z,5.485
2023-01-12T05:14:14.375Z,5.525
2023-01-12T05:15:13.919Z,5.501
2023-01-12T05:16:14.508Z,5.515
2023-01-12T05:17:14.310Z,5.496
2023-01-12T05:18:13.818Z,5.485
2023-01-12T05:19:14.366Z,5.496
2023-01-12T05:20:13.876Z,5.560
2023-01-12T05:21:14.442Z,5.568
2023-01-12T05:22:14.056Z,5.587
2023-01-12T05:23:14.591Z,5.597
2023-01-12T05:24:14.167Z,5.565
2023-01-12T05:25:15.970Z,5.597
2023-01-12T05:26:13.667Z,5.619
2023-01-12T05:27:14.204Z,5.611
2023-01-12T05:28:13.687Z,5.659
2023-01-12T05:29:14.437Z,5.651
2023-01-12T05:30:14.002Z,5.653
2023-01-12T05:31:14.480Z,5.680
2023-01-12T05:32:13.991Z,5.702
2023-01-12T05:33:14.574Z,5.704
2023-01-12T05:34:14.218Z,5.680
2023-01-12T05:35:13.797Z,5.715
2023-01-12T05:36:14.336Z,5.744
2023-01-12T05:37:13.948Z,5.720
2023-01-12T05:38:14.482Z,5.720
2023-01-12T05:39:14.152Z,5.726
2023-01-12T05:40:13.790Z,5.715
2023-01-12T05:41:14.362Z,5.723
2023-01-12T05:42:13.987Z,5.678
2023-01-12T05:43:14.601Z,5.683
2023-01-12T05:44:14.171Z,5.731
2023-01-12T05:45:13.799Z,5.694
2023-01-12T05:46:14.396Z,5.694
2023-01-12T05:47:14.131Z,5.691
2023-01-12T05:48:13.623Z,5.669
2023-01-12T05:49:14.132Z,5.678
2023-01-12T05:50:13.729Z,5.702
2023-01-12T05:51:14.290Z,5.691
2023-01-12T05:52:13.922Z,5.664
2023-01-12T05:53:14.419Z,5.747
2023-01-12T05:54:13.960Z,5.750
2023-01-12T05:55:14.592Z,5.715
2023-01-12T05:56:14.202Z,5.702
2023-01-12T05:57:13.825Z,5.699
2023-01-12T05:58:14.429Z,5.731
2023-01-12T05:59:13.968Z,5.763
2023-01-12T06:00:13.708Z,5.747
2023-01-12T06:01:14.416Z,5.755
2023-01-12T06:02:14.344Z,5.827
2023-01-12T06:03:14.305Z,5.763
2023-01-12T06:04:13.830Z,5.774
2023-01-12T06:05:14.710Z,5.758
2023-01-12T06:06:14.258Z,5.763
2023-01-12T06:07:13.797Z,5.766
2023-01-12T06:08:14.330Z,5.776
2023-01-12T06:09:13.962Z,5.790
2023-01-12T06:10:14.548Z,5.792
2023-01-12T06:11:14.295Z,5.782
2023-01-12T06:12:13.784Z,5.808
2023-01-12T06:13:14.383Z,5.795
2023-01-12T06:14:13.875Z,5.835
2023-01-12T06:15:14.412Z,5.806
2023-01-12T06:16:14.220Z,5.787
2023-01-12T06:17:13.875Z,5.774
2023-01-12T06:18:14.504Z,5.736
2023-01-12T06:19:14.027Z,5.774
2023-01-12T06:20:14.668Z,5.758
2023-01-12T06:21:14.036Z,5.766
2023-01-12T06:22:14.527Z,5.731
2023-01-12T06:23:14.146Z,5.763
2023-01-12T06:24:14.591Z,5.747
2023-01-12T06:25:14.260Z,5.774
2023-01-12T06:26:13.805Z,5.736
2023-01-12T06:27:14.322Z,5.755
2023-01-12T06:28:13.903Z,5.771
2023-01-12T06:29:14.439Z,5.790
2023-01-12T06:30:13.887Z,5.824
2023-01-12T06:31:14.833Z,5.824
2023-01-12T06:32:13.715Z,5.808
2023-01-12T06:33:14.122Z,5.891
2023-01-12T06:34:13.762Z,5.867
2023-01-12T06:35:19.309Z,5.880
2023-01-12T06:36:14.339Z,5.872
2023-01-12T06:37:13.853Z,5.854
2023-01-12T06:38:14.402Z,5.880
2023-01-12T06:39:13.861Z,5.896
2023-01-12T06:40:14.600Z,5.854
2023-01-12T06:41:14.127Z,5.904
2023-01-12T06:42:13.743Z,5.859
2023-01-12T06:43:14.320Z,5.832
2023-01-12T06:44:14.003Z,5.870
2023-01-12T06:45:14.687Z,5.838
2023-01-12T06:46:14.381Z,5.816
2023-01-12T06:47:14.275Z,5.846
2023-01-12T06:48:13.936Z,5.840
2023-01-12T06:49:13.905Z,5.838
2023-01-12T06:50:14.477Z,5.835
2023-01-12T06:51:14.035Z,5.894
2023-01-12T06:52:15.474Z,5.904
2023-01-12T06:53:14.053Z,5.891
2023-01-12T06:54:14.567Z,5.942
2023-01-12T06:55:14.517Z,5.939
2023-01-12T06:56:14.150Z,5.969
2023-01-12T06:57:13.709Z,6.009
2023-01-12T06:58:14.251Z,6.078
2023-01-12T06:59:13.797Z,6.062
2023-01-12T07:00:14.635Z,6.115
2023-01-12T07:01:14.370Z,6.182
2023-01-12T07:02:13.791Z,6.233
2023-01-12T07:03:15.002Z,6.350
2023-01-12T07:04:13.950Z,6.313
2023-01-12T07:05:13.785Z,6.361
2023-01-12T07:06:14.375Z,6.425
2023-01-12T07:07:13.908Z,6.497
2023-01-12T07:08:14.435Z,6.508
2023-01-12T07:09:14.151Z,6.553
2023-01-12T07:10:13.723Z,6.561
2023-01-12T07:11:14.300Z,6.572
2023-01-12T07:12:14.805Z,6.684
2023-01-12T07:13:14.851Z,6.730
2023-01-12T07:14:14.361Z,6.738
2023-01-12T07:15:13.933Z,6.831
2023-01-12T07:16:14.566Z,6.690
2023-01-12T07:17:14.193Z,6.698
2023-01-12T07:18:13.775Z,6.746
2023-01-12T07:19:14.483Z,6.767
2023-01-12T07:20:14.116Z,6.842
2023-01-12T07:21:13.680Z,6.887
2023-01-12T07:22:14.186Z,6.922
2023-01-12T07:23:13.942Z,6.954
2023-01-12T07:24:14.544Z,7.002
2023-01-12T07:25:15.460Z,7.002
2023-01-12T07:26:14.028Z,7.082
2023-01-12T07:27:14.601Z,7.031
2023-01-12T07:28:14.202Z,7.015
2023-01-12T07:29:13.726Z,7.077
2023-01-12T07:30:14.330Z,7.063
2023-01-12T07:31:14.104Z,7.063
2023-01-12T07:32:13.987Z,7.058
2023-01-12T07:33:15.432Z,7.066
2023-01-12T07:34:13.750Z,7.101
2023-01-12T07:35:14.525Z,7.061
2023-01-12T07:36:14.227Z,7.101
2023-01-12T07:37:13.875Z,7.125
2023-01-12T07:38:14.247Z,7.119
2023-01-12T07:39:14.035Z,7.146
2023-01-12T07:40:16.851Z,7.141
2023-01-12T07:41:14.532Z,7.149
2023-01-12T07:42:14.119Z,7.103
2023-01-12T07:43:13.720Z,7.157
2023-01-12T07:44:14.425Z,7.119
2023-01-12T07:45:14.265Z,7.152
2023-01-12T07:46:14.639Z,7.130
2023-01-12T07:47:14.498Z,7.106
2023-01-12T07:48:14.235Z,7.144
2023-01-12T07:49:13.971Z,7.141
2023-01-12T07:50:14.657Z,7.154
2023-01-12T07:51:14.299Z,7.202
2023-01-12T07:52:14.106Z,7.234
2023-01-12T07:53:13.733Z,7.253
2023-01-12T07:54:14.398Z,7.218
2023-01-12T07:55:14.014Z,7.226
2023-01-12T07:56:14.194Z,7.256
2023-01-12T07:57:13.818Z,7.242
2023-01-12T07:58:13.645Z,7.242
2023-01-12T07:59:14.387Z,7.317
2023-01-12T08:00:14.092Z,7.312
2023-01-12T08:01:14.014Z,7.336
2023-01-12T08:02:13.940Z,7.376
2023-01-12T08:03:13.743Z,7.344
2023-01-12T08:04:14.362Z,7.365
2023-01-12T08:05:13.963Z,7.403
2023-01-12T08:06:13.981Z,7.387
2023-01-12T08:07:14.630Z,7.341
2023-01-12T08:08:14.251Z,7.373
2023-01-12T08:09:13.871Z,7.354
2023-01-12T08:10:14.453Z,7.384
2023-01-12T08:11:14.071Z,7.352
2023-01-12T08:12:14.211Z,7.378
2023-01-12T08:13:13.862Z,7.365
2023-01-12T08:14:14.623Z,7.373
2023-01-12T08:15:14.195Z,7.370
2023-01-12T08:16:14.026Z,7.389
2023-01-12T08:17:13.965Z,7.370
2023-01-12T08:18:14.505Z,7.381
2023-01-12T08:19:14.205Z,7.403
2023-01-12T08:20:13.797Z,7.429
2023-01-12T08:21:14.477Z,7.448
2023-01-12T08:22:14.138Z,7.456
2023-01-12T08:23:14.156Z,7.483
2023-01-12T08:24:13.832Z,7.440
2023-01-12T08:25:14.522Z,7.472
2023-01-12T08:26:14.265Z,7.477
2023-01-12T08:27:13.949Z,7.528
2023-01-12T08:28:14.678Z,7.496
2023-01-12T08:29:14.333Z,7.557
2023-01-12T08:30:14.149Z,7.571
2023-01-12T08:31:13.859Z,7.512
2023-01-12T08:32:14.619Z,7.581
2023-01-12T08:33:14.284Z,7.584
2023-01-12T08:34:13.992Z,7.587
2023-01-12T08:35:17.051Z,7.568
2023-01-12T08:36:13.924Z,7.608
2023-01-12T08:37:14.049Z,7.579
2023-01-12T08:38:14.129Z,7.595
2023-01-12T08:39:13.715Z,7.622
2023-01-12T08:40:14.418Z,7.659
2023-01-12T08:41:14.210Z,7.640
2023-01-12T08:42:13.991Z,7.648
2023-01-12T08:43:14.601Z,7.654
2023-01-12T08:44:14.426Z,7.648
2023-01-12T08:45:14.042Z,7.680
2023-01-12T08:46:13.810Z,7.648
2023-01-12T08:47:14.575Z,7.656
2023-01-12T08:48:14.250Z,7.646
2023-01-12T08:49:16.592Z,7.654
2023-01-12T08:50:14.482Z,7.694
2023-01-12T08:51:14.237Z,7.747
2023-01-12T08:52:13.983Z,7.715
2023-01-12T08:53:14.071Z,7.702
2023-01-12T08:54:13.710Z,7.710
2023-01-12T08:55:14.375Z,7.776
2023-01-12T08:56:13.994Z,7.827
2023-01-12T08:57:14.619Z,7.808
2023-01-12T08:58:14.302Z,7.835
2023-01-12T08:59:13.933Z,7.862
2023-01-12T09:00:14.608Z,7.873
2023-01-12T09:01:14.862Z,7.886
2023-01-12T09:02:14.257Z,7.910
2023-01-12T09:03:14.243Z,7.910
2023-01-12T09:04:13.834Z,7.883
2023-01-12T09:05:14.531Z,7.931
2023-01-12T09:06:14.162Z,7.905
2023-01-12T09:07:13.768Z,7.950
2023-01-12T09:08:14.391Z,7.913
2023-01-12T09:09:14.055Z,7.889
2023-01-12T09:10:13.643Z,7.929
2023-01-12T09:11:14.222Z,7.923
2023-01-12T09:12:13.840Z,7.982
2023-01-12T09:13:14.443Z,8.001
2023-01-12T09:14:14.091Z,7.971
2023-01-12T09:15:13.687Z,8.001
2023-01-12T09:16:19.244Z,8.025
2023-01-12T09:17:14.217Z,7.979
2023-01-12T09:18:13.842Z,8.022
2023-01-12T09:19:14.538Z,8.038
2023-01-12T09:20:14.203Z,8.022
2023-01-12T09:21:13.864Z,8.073
2023-01-12T09:22:14.532Z,8.070
2023-01-12T09:23:14.181Z,8.091
2023-01-12T09:24:13.776Z,8.134
2023-01-12T09:25:14.487Z,8.097
2023-01-12T09:26:14.464Z,8.134
2023-01-12T09:27:14.144Z,8.169
2023-01-12T09:28:13.763Z,8.201
2023-01-12T09:29:14.354Z,8.198
2023-01-12T09:30:14.011Z,8.233
2023-01-12T09:31:14.742Z,8.196
2023-01-12T09:32:13.814Z,8.228
2023-01-12T09:33:14.559Z,8.257
2023-01-12T09:34:14.237Z,8.201
2023-01-12T09:35:14.213Z,8.225
2023-01-12T09:37:13.724Z,8.252
2023-01-12T09:38:14.414Z,8.289
2023-01-12T09:39:22.417Z,8.257
2023-01-12T09:40:14.560Z,8.257
2023-01-12T09:41:14.308Z,8.292
2023-01-12T09:42:13.983Z,8.241
2023-01-12T09:43:14.630Z,8.241
2023-01-12T09:44:14.354Z,8.252
2023-01-12T09:45:13.962Z,8.225
2023-01-12T09:46:14.634Z,8.225
2023-01-12T09:47:14.370Z,8.212
2023-01-12T09:48:14.086Z,8.180
2023-01-12T09:49:13.855Z,8.150
2023-01-12T09:50:19.451Z,8.116
2023-01-12T09:51:14.135Z,8.132
2023-01-12T09:52:13.733Z,8.083
2023-01-12T09:53:14.366Z,8.059
2023-01-12T09:54:14.023Z,8.078
2023-01-12T09:55:13.686Z,8.049
2023-01-12T09:56:14.270Z,8.067
2023-01-12T09:57:20.738Z,8.022
2023-01-12T09:58:14.391Z,8.017
2023-01-12T09:59:14.146Z,7.985
2023-01-12T10:00:14.505Z,7.947
2023-01-12T10:01:20.584Z,7.982
2023-01-12T10:03:13.960Z,7.937
2023-01-12T10:04:13.855Z,7.921
2023-01-12T10:05:14.552Z,7.937
2023-01-12T10:06:13.675Z,7.947
2023-01-12T10:07:14.325Z,7.979
2023-01-12T10:08:14.009Z,8.003
2023-01-12T10:09:14.623Z,8.003
2023-01-12T10:10:14.371Z,8.011
2023-01-12T10:11:14.074Z,7.993
2023-01-12T10:12:13.735Z,8.078
2023-01-12T10:13:17.490Z,8.083
2023-01-12T10:14:14.175Z,8.086
2023-01-12T10:15:13.762Z,8.132
2023-01-12T10:16:14.710Z,8.161
2023-01-12T10:17:14.006Z,8.132
2023-01-12T10:19:18.526Z,8.198
2023-01-12T10:20:18.405Z,8.252
2023-01-12T10:21:18.393Z,8.204
2023-01-12T10:22:18.419Z,8.278
2023-01-12T10:23:18.170Z,8.286
2023-01-12T10:24:17.942Z,8.332
2023-01-12T10:25:18.594Z,8.385
2023-01-12T10:26:18.315Z,8.391
2023-01-12T10:27:17.993Z,8.396
2023-01-12T10:28:18.991Z,8.455
2023-01-12T10:29:17.771Z,8.505
2023-01-12T10:30:18.443Z,8.489
2023-01-12T10:31:18.153Z,8.487
2023-01-12T10:32:18.104Z,8.505
2023-01-12T10:33:18.023Z,8.532
2023-01-12T10:34:17.918Z,8.580
2023-01-12T10:35:18.601Z,8.567
2023-01-12T10:36:18.335Z,8.559
2023-01-12T10:37:17.978Z,8.631
2023-01-12T10:38:18.724Z,8.644
2023-01-12T10:39:18.676Z,8.583
2023-01-12T10:40:18.418Z,8.567
2023-01-12T10:41:18.499Z,8.577
2023-01-12T10:42:18.218Z,8.556
2023-01-12T10:43:20.540Z,8.484
2023-01-12T10:44:18.472Z,8.439
2023-01-12T10:45:18.203Z,8.481
2023-01-12T10:46:18.053Z,8.481
2023-01-12T10:47:17.903Z,8.487
2023-01-12T10:48:18.482Z,8.455
2023-01-12T10:49:18.130Z,8.532
2023-01-12T10:50:17.858Z,8.532
2023-01-12T10:51:18.507Z,8.529
2023-01-12T10:52:18.122Z,8.489
2023-01-12T10:53:17.783Z,8.452
2023-01-12T10:54:18.455Z,8.431
2023-01-12T10:55:18.162Z,8.412
2023-01-12T10:56:18.032Z,8.308
2023-01-12T10:57:17.763Z,8.332
2023-01-12T10:58:18.495Z,8.313
2023-01-12T10:59:18.176Z,8.332
2023-01-12T11:00:17.948Z,8.391
2023-01-12T11:01:18.973Z,8.460
2023-01-12T11:02:18.368Z,8.460
2023-01-12T11:03:18.607Z,8.479
2023-01-12T11:04:18.248Z,8.460
2023-01-12T11:05:18.046Z,8.380
2023-01-12T11:06:17.739Z,8.337
2023-01-12T11:07:19.956Z,8.380
2023-01-12T11:08:17.787Z,8.278
2023-01-12T11:09:18.483Z,8.286
2023-01-12T11:10:19.147Z,8.324
2023-01-12T11:11:17.717Z,8.316
2023-01-12T11:12:18.407Z,8.276
2023-01-12T11:13:18.040Z,8.399
2023-01-12T11:14:22.593Z,8.313
2023-01-12T11:15:18.009Z,8.289
2023-01-12T11:16:17.744Z,8.292
2023-01-12T11:17:18.582Z,8.284
2023-01-12T11:18:18.512Z,8.308
2023-01-12T11:19:18.132Z,8.465
2023-01-12T11:20:17.812Z,8.391
2023-01-12T11:21:18.634Z,8.305
2023-01-12T11:22:18.319Z,8.353
2023-01-12T11:23:17.952Z,8.367
2023-01-12T11:24:19.012Z,8.364
2023-01-12T11:25:17.684Z,8.332
2023-01-12T11:26:18.375Z,8.428
2023-01-12T11:27:17.909Z,8.417
2023-01-12T11:28:17.843Z,8.396
2023-01-12T11:29:20.542Z,8.383
2023-01-12T11:30:18.264Z,8.399
2023-01-12T11:31:17.999Z,8.348
2023-01-12T11:32:18.668Z,8.318
2023-01-12T11:33:18.353Z,8.265
2023-01-12T11:34:17.950Z,8.281
2023-01-12T11:35:20.404Z,8.188
2023-01-12T11:36:18.073Z,8.126
2023-01-12T11:37:17.692Z,8.075
2023-01-12T11:38:18.280Z,8.062
2023-01-12T11:39:17.851Z,8.054
2023-01-12T11:40:17.885Z,8.049
2023-01-12T11:41:19.171Z,8.182
2023-01-12T11:42:17.838Z,8.054
2023-01-12T11:43:18.351Z,8.057
2023-01-12T11:44:18.015Z,8.129
2023-01-12T11:45:17.952Z,8.102
2023-01-12T11:46:17.866Z,8.027
2023-01-12T11:47:18.590Z,8.054
2023-01-12T11:48:18.222Z,8.091
2023-01-12T11:49:17.844Z,8.078
2023-01-12T11:50:18.529Z,7.982
2023-01-12T11:51:18.312Z,8.049
2023-01-12T11:52:17.955Z,8.046
2023-01-12T11:53:18.668Z,7.939
2023-01-12T11:54:18.354Z,7.966
2023-01-12T11:55:18.039Z,7.990
2023-01-12T11:56:17.755Z,8.009
2023-01-12T11:57:18.412Z,8.017
2023-01-12T11:58:18.108Z,8.009
2023-01-12T11:59:17.732Z,8.113
2023-01-12T12:00:18.731Z,8.102
2023-01-12T12:01:18.563Z,8.252
2023-01-12T12:02:18.214Z,8.353
2023-01-12T12:03:18.175Z,8.318
2023-01-12T12:04:18.113Z,8.225
2023-01-12T12:05:17.867Z,8.225
2023-01-12T12:06:18.553Z,8.236
2023-01-12T12:07:18.242Z,8.359
2023-01-12T12:08:17.841Z,8.364
2023-01-12T12:09:18.534Z,8.367
2023-01-12T12:10:18.337Z,8.356
2023-01-12T12:11:17.929Z,8.407
2023-01-12T12:12:18.634Z,8.420
2023-01-12T12:13:18.237Z,8.425
2023-01-12T12:14:17.962Z,8.409
2023-01-12T12:15:17.651Z,8.465
2023-01-12T12:16:17.729Z,8.543
2023-01-12T12:17:18.459Z,8.492
2023-01-12T12:18:18.368Z,8.447
2023-01-12T12:19:18.002Z,8.455
2023-01-12T12:20:18.637Z,8.503
2023-01-12T12:21:18.224Z,8.455
2023-01-12T12:22:17.884Z,8.519
2023-01-12T12:23:18.575Z,8.644
2023-01-12T12:24:18.224Z,8.786
2023-01-12T12:25:17.867Z,8.877
2023-01-12T12:26:18.535Z,8.791
2023-01-12T12:27:18.248Z,8.839
2023-01-12T12:28:17.876Z,8.925
2023-01-12T12:29:18.616Z,8.853
2023-01-12T12:30:18.384Z,8.943
2023-01-12T12:31:18.070Z,9.010
2023-01-12T12:32:17.740Z,8.933
2023-01-12T12:33:18.451Z,8.917
2023-01-12T12:34:18.122Z,8.917
2023-01-12T12:35:17.735Z,9.047
2023-01-12T12:36:18.371Z,8.981
2023-01-12T12:37:18.120Z,8.909
2023-01-12T12:38:17.950Z,8.901
2023-01-12T12:39:18.733Z,8.994
2023-01-12T12:40:18.766Z,9.015
2023-01-12T12:41:18.680Z,8.962
2023-01-12T12:42:17.826Z,8.962
2023-01-12T12:43:18.546Z,8.975
2023-01-12T12:44:17.950Z,8.973
2023-01-12T12:45:18.602Z,9.160
2023-01-12T12:46:18.276Z,9.138
2023-01-12T12:47:18.163Z,9.181
2023-01-12T12:48:18.550Z,9.101
2023-01-12T12:49:18.450Z,9.077
2023-01-12T12:50:18.094Z,9.168
2023-01-12T12:51:17.985Z,9.160
2023-01-12T12:52:18.653Z,9.189
2023-01-12T12:53:17.810Z,9.205
2023-01-12T12:54:18.360Z,9.168
2023-01-12T12:55:18.142Z,9.256
2023-01-12T12:56:17.689Z,9.210
2023-01-12T12:57:18.300Z,9.229